createdAt,value
2023-02-16T00:01:12.788Z,62.38
2023-02-16T00:03:39.298Z,62.20
2023-02-16T00:06:05.933Z,60.08
2023-02-16T00:08:32.356Z,58.33
2023-02-16T00:11:17.476Z,59.90
2023-02-16T00:13:52.720Z,60.50
2023-02-16T00:16:21.832Z,63.60
2023-02-16T00:18:48.689Z,60.63
2023-02-16T00:21:15.564Z,58.67
2023-02-16T00:23:42.087Z,57.55
2023-02-16T00:26:19.359Z,62.95
2023-02-16T00:28:46.306Z,57.75
2023-02-16T00:31:20.731Z,65.32
2023-02-16T00:33:47.867Z,58.20
2023-02-16T00:36:14.630Z,59.22
2023-02-16T00:38:41.127Z,60.05
2023-02-16T00:41:36.643Z,54.28
2023-02-16T00:44:03.146Z,52.17
2023-02-16T00:46:29.875Z,52.30
2023-02-16T00:48:56.496Z,48.70
2023-02-16T00:51:26.193Z,48.63
2023-02-16T00:53:52.891Z,44.97
2023-02-16T00:56:20.573Z,51.08
2023-02-16T00:58:50.613Z,51.58
2023-02-16T01:01:20.155Z,53.67
2023-02-16T01:03:46.698Z,50.30
2023-02-16T01:06:31.456Z,51.38
2023-02-16T01:09:32.570Z,49.25
2023-02-16T01:12:00.044Z,54.10
2023-02-16T01:14:26.548Z,52.95
2023-02-16T01:16:53.018Z,52.25
2023-02-16T01:19:19.645Z,52.25
2023-02-16T01:21:46.098Z,54.45
2023-02-16T01:24:12.510Z,53.58
2023-02-16T01:26:41.990Z,53.28
2023-02-16T01:29:15.447Z,52.88
2023-02-16T01:31:42.095Z,53.08
2023-02-16T01:34:08.707Z,50.50
2023-02-16T01:36:38.624Z,52.58
2023-02-16T01:39:05.845Z,50.80
2023-02-16T01:42:03.264Z,48.88
2023-02-16T01:44:45.561Z,50.13
2023-02-16T01:47:49.412Z,49.65
2023-02-16T01:50:23.073Z,48.28
2023-02-16T01:53:12.541Z,46.53
2023-02-16T01:55:45.263Z,52.38
2023-02-16T01:58:52.880Z,50.63
2023-02-16T02:01:41.736Z,55.75
2023-02-16T02:04:37.566Z,54.35
2023-02-16T02:07:04.176Z,56.80
2023-02-16T02:09:48.851Z,56.10
2023-02-16T02:12:37.338Z,52.53
2023-02-16T02:15:03.956Z,52.63
2023-02-16T02:17:30.525Z,53.30
2023-02-16T02:20:16.128Z,50.17
2023-02-16T02:23:22.965Z,56.38
2023-02-16T02:26:22.720Z,50.78
2023-02-16T02:28:57.770Z,53.20
2023-02-16T02:31:53.813Z,52.60
2023-02-16T02:34:28.547Z,53.05
2023-02-16T02:37:11.462Z,54.38
2023-02-16T02:39:58.641Z,56.58
2023-02-16T02:42:43.801Z,53.45
2023-02-16T02:45:17.150Z,54.58
2023-02-16T02:47:46.479Z,57.67
2023-02-16T02:50:38.936Z,56.20
2023-02-16T02:53:12.078Z,50.00
2023-02-16T02:56:07.213Z,49.25
2023-02-16T02:58:55.656Z,54.90
2023-02-16T03:01:23.634Z,53.65
2023-02-16T03:03:54.652Z,53.10
2023-02-16T03:06:28.294Z,54.08
2023-02-16T03:09:00.355Z,53.28
2023-02-16T03:11:48.200Z,48.58
2023-02-16T03:14:30.654Z,52.60
2023-02-16T03:17:30.338Z,49.40
2023-02-16T03:20:18.263Z,50.33
2023-02-16T03:23:03.405Z,52.30
2023-02-16T03:25:53.178Z,47.35
2023-02-16T03:28:41.089Z,54.60
2023-02-16T03:31:10.811Z,52.10
2023-02-16T03:33:38.130Z,52.65
2023-02-16T03:36:05.613Z,55.75
2023-02-16T03:38:32.351Z,49.28
2023-02-16T03:40:58.823Z,50.20
2023-02-16T03:43:27.626Z,52.75
2023-02-16T03:45:54.782Z,47.30
2023-02-16T03:48:21.544Z,46.17
2023-02-16T03:50:47.965Z,48.90
2023-02-16T03:53:15.106Z,45.72
2023-02-16T03:55:45.303Z,50.28
2023-02-16T03:58:14.603Z,51.30
2023-02-16T04:00:41.307Z,48.88
2023-02-16T04:03:10.812Z,48.92
2023-02-16T04:05:37.686Z,47.25
2023-02-16T04:08:05.263Z,49.80
2023-02-16T04:10:31.760Z,50.17
2023-02-16T04:12:58.329Z,48.80
2023-02-16T04:15:28.096Z,48.95
2023-02-16T04:17:55.035Z,50.60
2023-02-16T04:20:25.281Z,49.20
2023-02-16T04:22:52.389Z,47.28
2023-02-16T04:25:19.101Z,45.55
2023-02-16T04:27:46.331Z,52.92
2023-02-16T04:30:15.765Z,46.15
2023-02-16T04:32:42.279Z,49.50
2023-02-16T04:35:09.429Z,52.35
2023-02-16T04:37:36.143Z,46.28
2023-02-16T04:40:03.943Z,49.70
2023-02-16T04:42:30.331Z,47.45
2023-02-16T04:44:56.743Z,42.38
2023-02-16T04:47:25.792Z,44.72
2023-02-16T04:49:53.238Z,44.80
2023-02-16T04:52:20.195Z,44.00
2023-02-16T04:54:46.686Z,45.80
2023-02-16T04:57:13.150Z,43.90
2023-02-16T04:59:39.558Z,47.95
2023-02-16T05:02:06.039Z,46.33
2023-02-16T05:04:32.481Z,44.50
2023-02-16T05:06:59.136Z,42.67
2023-02-16T05:09:25.594Z,47.08
2023-02-16T05:12:10.361Z,43.90
2023-02-16T05:14:42.445Z,41.42
2023-02-16T05:17:16.303Z,42.63
2023-02-16T05:19:44.696Z,41.97
2023-02-16T05:22:11.156Z,43.50
2023-02-16T05:24:38.085Z,44.35
2023-02-16T05:27:06.952Z,42.33
2023-02-16T05:29:34.065Z,45.72
2023-02-16T05:32:03.326Z,44.90
2023-02-16T05:34:31.117Z,42.58
2023-02-16T05:36:57.557Z,43.47
2023-02-16T05:39:24.029Z,44.47
2023-02-16T05:41:50.578Z,45.58
2023-02-16T05:44:17.371Z,45.20
2023-02-16T05:46:43.822Z,50.50
2023-02-16T05:49:10.863Z,51.53
2023-02-16T05:51:37.545Z,46.97
2023-02-16T05:54:04.746Z,45.47
2023-02-16T05:56:31.813Z,44.40
2023-02-16T05:58:59.877Z,46.80
2023-02-16T06:01:27.149Z,44.80
2023-02-16T06:03:53.619Z,44.22
2023-02-16T06:06:20.321Z,47.08
2023-02-16T06:08:46.777Z,42.75
2023-02-16T06:11:32.033Z,45.55
2023-02-16T06:13:59.614Z,46.00
2023-02-16T06:16:27.773Z,48.92
2023-02-16T06:18:54.855Z,48.08
2023-02-16T06:21:22.142Z,46.53
2023-02-16T06:23:48.612Z,48.03
2023-02-16T06:26:15.698Z,49.10
2023-02-16T06:28:42.241Z,45.15
2023-02-16T06:31:08.856Z,45.40
2023-02-16T06:33:35.404Z,46.88
2023-02-16T06:36:01.825Z,44.45
2023-02-16T06:38:28.222Z,47.33
2023-02-16T06:40:54.985Z,47.03
2023-02-16T06:43:21.535Z,48.38
2023-02-16T06:45:49.847Z,47.25
2023-02-16T06:48:16.307Z,47.60
2023-02-16T06:50:42.700Z,48.13
2023-02-16T06:53:09.202Z,48.28
2023-02-16T06:55:36.829Z,52.85
2023-02-16T06:58:07.322Z,50.65
2023-02-16T07:00:34.519Z,47.28
2023-02-16T07:03:01.333Z,47.78
2023-02-16T07:05:27.815Z,48.28
2023-02-16T07:07:54.283Z,48.70
2023-02-16T07:10:20.848Z,47.97
2023-02-16T07:12:47.993Z,44.58
2023-02-16T07:15:14.421Z,47.67
2023-02-16T07:17:41.014Z,47.55
2023-02-16T07:20:08.097Z,48.60
2023-02-16T07:22:34.583Z,48.75
2023-02-16T07:25:01.038Z,50.80
2023-02-16T07:27:27.715Z,58.85
2023-02-16T07:29:54.200Z,66.78
2023-02-16T07:32:20.795Z,86.45
2023-02-16T07:34:47.283Z,73.25
2023-02-16T07:37:13.689Z,66.38
2023-02-16T07:39:40.164Z,61.33
2023-02-16T07:42:06.592Z,59.08
2023-02-16T07:44:32.998Z,54.40
2023-02-16T07:46:59.396Z,67.65
2023-02-16T07:49:25.866Z,60.17
2023-02-16T07:51:52.289Z,59.88
2023-02-16T07:54:18.687Z,59.10
2023-02-16T07:56:45.223Z,53.17
2023-02-16T07:59:11.760Z,53.58
2023-02-16T08:01:38.226Z,52.13
2023-02-16T08:04:04.841Z,55.08
2023-02-16T08:06:31.313Z,55.95
2023-02-16T08:08:57.804Z,55.28
2023-02-16T08:11:25.546Z,56.17
2023-02-16T08:13:52.473Z,51.50
2023-02-16T08:16:24.350Z,48.78
2023-02-16T08:18:52.180Z,46.40
2023-02-16T08:21:21.720Z,50.85
2023-02-16T08:23:54.367Z,45.22
2023-02-16T08:26:21.931Z,42.72
2023-02-16T08:28:50.123Z,45.38
2023-02-16T08:31:23.123Z,42.97
2023-02-16T08:33:53.965Z,41.83
2023-02-16T08:36:32.961Z,48.70
2023-02-16T08:39:00.968Z,41.42
2023-02-16T08:41:33.452Z,42.40
2023-02-16T08:44:00.870Z,42.20
2023-02-16T08:46:32.344Z,39.55
2023-02-16T08:49:00.374Z,37.40
2023-02-16T08:51:29.361Z,39.35
2023-02-16T08:53:58.745Z,39.78
2023-02-16T08:56:25.917Z,40.30
2023-02-16T08:58:52.615Z,36.20
2023-02-16T09:01:19.170Z,37.85
2023-02-16T09:03:46.241Z,36.75
2023-02-16T09:06:15.249Z,39.30
2023-02-16T09:08:41.986Z,44.38
2023-02-16T09:11:12.834Z,44.20
2023-02-16T09:13:40.969Z,46.63
2023-02-16T09:16:10.462Z,46.92
2023-02-16T09:18:38.581Z,45.67
2023-02-16T09:21:07.321Z,43.30
2023-02-16T09:23:35.522Z,44.42
2023-02-16T09:26:02.834Z,45.58
2023-02-16T09:28:30.699Z,44.65
2023-02-16T09:30:57.345Z,44.55
2023-02-16T09:33:23.943Z,41.83
2023-02-16T09:35:50.561Z,47.92
2023-02-16T09:38:17.720Z,41.60
2023-02-16T09:40:44.633Z,43.92
2023-02-16T09:43:20.032Z,47.72
2023-02-16T09:45:50.661Z,50.40
2023-02-16T09:48:30.414Z,54.97
2023-02-16T09:51:00.535Z,50.47
2023-02-16T09:53:41.602Z,49.47
2023-02-16T09:56:17.271Z,48.03
2023-02-16T09:59:05.598Z,44.83
2023-02-16T10:01:50.476Z,46.55
2023-02-16T10:04:46.085Z,43.30
2023-02-16T10:07:31.948Z,42.22
2023-02-16T10:10:01.025Z,42.45
2023-02-16T10:12:37.307Z,47.25
2023-02-16T10:15:08.585Z,42.35
2023-02-16T10:17:38.378Z,42.38
2023-02-16T10:20:09.393Z,42.33
2023-02-16T10:23:20.788Z,42.72
2023-02-16T10:25:50.250Z,42.20
2023-02-16T10:28:22.705Z,39.67
2023-02-16T10:31:06.122Z,37.65
2023-02-16T10:33:50.884Z,36.63
2023-02-16T10:36:51.766Z,36.58
2023-02-16T10:39:42.987Z,35.03
2023-02-16T10:42:34.283Z,38.97
2023-02-16T10:45:20.384Z,38.58
2023-02-16T10:47:47.297Z,33.22
2023-02-16T10:50:38.809Z,34.42
2023-02-16T10:53:12.797Z,32.58
2023-02-16T10:55:39.272Z,36.35
2023-02-16T10:58:16.888Z,33.72
2023-02-16T11:00:58.471Z,33.72
2023-02-16T11:05:56.013Z,33.72
2023-02-16T11:08:25.165Z,33.28
2023-02-16T11:10:53.906Z,34.03
2023-02-16T11:13:36.865Z,33.55
2023-02-16T11:16:10.694Z,33.17
2023-02-16T11:18:40.611Z,33.22
2023-02-16T11:21:08.319Z,33.58
2023-02-16T11:23:36.249Z,36.10
2023-02-16T11:26:11.759Z,34.97
2023-02-16T11:28:40.931Z,35.55
2023-02-16T11:31:19.668Z,30.25
2023-02-16T11:33:58.135Z,32.92
2023-02-16T11:36:40.384Z,31.08
2023-02-16T11:39:20.597Z,36.72
2023-02-16T11:41:56.804Z,34.85
2023-02-16T11:44:38.320Z,34.85
2023-02-16T11:49:50.182Z,30.90
2023-02-16T11:52:29.502Z,33.08
2023-02-16T11:54:58.745Z,31.23
2023-02-16T11:57:31.725Z,32.63
2023-02-16T12:00:00.402Z,30.08
2023-02-16T12:02:29.495Z,29.90
2023-02-16T12:05:10.571Z,32.45
2023-02-16T12:07:50.948Z,29.15
2023-02-16T12:10:23.077Z,26.40
2023-02-16T12:13:16.009Z,30.90
2023-02-16T12:15:49.854Z,29.52
2023-02-16T12:18:36.949Z,28.67
2023-02-16T12:21:06.910Z,28.67
2023-02-16T12:23:53.800Z,28.50
2023-02-16T12:26:35.285Z,30.20
2023-02-16T12:32:12.179Z,26.13
2023-02-16T12:34:38.688Z,29.40
2023-02-16T12:37:49.897Z,27.30
2023-02-16T12:40:44.452Z,27.05
2023-02-16T12:43:28.040Z,27.10
2023-02-16T12:45:56.584Z,27.17
2023-02-16T12:49:12.158Z,26.52
2023-02-16T12:51:45.718Z,25.58
2023-02-16T12:54:23.460Z,27.08
2023-02-16T12:57:01.805Z,27.35
2023-02-16T12:59:56.592Z,28.95
2023-02-16T13:02:37.042Z,27.67
2023-02-16T13:05:12.810Z,26.52
2023-02-16T13:07:47.032Z,26.15
2023-02-16T13:11:00.678Z,23.40
2023-02-16T13:13:32.049Z,25.10
2023-02-16T13:18:59.870Z,24.50
2023-02-16T13:21:52.636Z,21.42
2023-02-16T13:24:24.935Z,24.27
2023-02-16T13:27:01.132Z,22.83
2023-02-16T13:29:45.194Z,25.15
2023-02-16T13:32:24.716Z,22.67
2023-02-16T13:35:12.641Z,23.70
2023-02-16T13:37:56.345Z,24.55
2023-02-16T13:40:36.249Z,24.50
2023-02-16T13:43:15.608Z,25.63
2023-02-16T13:45:46.746Z,26.05
2023-02-16T13:48:24.378Z,22.80
2023-02-16T13:51:03.818Z,21.80
2023-02-16T13:53:37.876Z,23.73
2023-02-16T13:56:31.472Z,22.60
2023-02-16T13:59:18.384Z,28.13
2023-02-16T14:01:46.786Z,24.90
2023-02-16T14:04:33.312Z,20.77
2023-02-16T14:07:03.085Z,25.27
2023-02-16T14:09:39.634Z,21.33
2023-02-16T14:12:09.344Z,22.85
2023-02-16T14:14:56.458Z,20.67
2023-02-16T14:17:32.809Z,22.10
2023-02-16T14:20:05.141Z,22.65
2023-02-16T14:22:46.621Z,21.75
2023-02-16T14:25:22.238Z,21.00
2023-02-16T14:27:54.513Z,20.45
2023-02-16T14:30:30.136Z,21.30
2023-02-16T14:33:16.765Z,22.55
2023-02-16T14:35:58.426Z,22.10
2023-02-16T14:38:29.060Z,21.20
2023-02-16T14:40:57.814Z,20.38
2023-02-16T14:43:33.139Z,20.40
2023-02-16T14:46:12.735Z,17.77
2023-02-16T14:48:45.041Z,20.08
2023-02-16T14:51:34.567Z,20.40
2023-02-16T14:54:27.433Z,20.42
2023-02-16T14:57:00.288Z,21.73
2023-02-16T14:59:32.838Z,20.75
2023-02-16T15:01:59.324Z,20.42
2023-02-16T15:04:33.564Z,24.05
2023-02-16T15:07:03.828Z,20.08
2023-02-16T15:09:33.319Z,19.25
2023-02-16T15:12:22.754Z,18.75
2023-02-16T15:15:01.872Z,22.20
2023-02-16T15:17:35.493Z,20.10
2023-02-16T15:20:17.724Z,18.42
2023-02-16T15:22:58.038Z,20.42
2023-02-16T15:25:26.778Z,18.25
2023-02-16T15:28:00.163Z,18.73
2023-02-16T15:30:32.152Z,16.10
2023-02-16T15:33:04.705Z,18.58
2023-02-16T15:35:34.637Z,19.73
2023-02-16T15:38:26.870Z,17.23
2023-02-16T15:41:05.392Z,19.02
2023-02-16T15:43:44.371Z,16.77
2023-02-16T15:46:23.230Z,20.60
2023-02-16T15:48:52.674Z,19.15
2023-02-16T15:51:34.756Z,19.13
2023-02-16T15:54:03.582Z,20.05
2023-02-16T15:56:47.246Z,21.98
2023-02-16T15:59:30.273Z,24.02
2023-02-16T16:02:04.735Z,23.05
2023-02-16T16:04:31.536Z,32.00
2023-02-16T16:06:59.996Z,31.23
2023-02-16T16:09:32.985Z,28.38
2023-02-16T16:12:12.035Z,29.13
2023-02-16T16:14:49.955Z,30.95
2023-02-16T16:17:20.672Z,31.30
2023-02-16T16:19:47.085Z,33.80
2023-02-16T16:22:39.682Z,33.33
2023-02-16T16:25:39.666Z,26.42
2023-02-16T16:28:08.764Z,28.73
2023-02-16T16:30:43.595Z,27.52
2023-02-16T16:33:13.919Z,29.55
2023-02-16T16:35:43.063Z,34.13
2023-02-16T16:38:27.062Z,30.27
2023-02-16T16:40:55.943Z,28.40
2023-02-16T16:43:29.683Z,29.25
2023-02-16T16:46:08.382Z,28.42
2023-02-16T16:48:37.122Z,28.70
2023-02-16T16:51:12.643Z,28.00
2023-02-16T16:54:04.017Z,29.15
2023-02-16T16:56:34.968Z,28.67
2023-02-16T16:59:01.466Z,28.80
2023-02-16T17:01:29.442Z,26.25
2023-02-16T17:03:56.591Z,29.65
2023-02-16T17:06:24.235Z,28.52
2023-02-16T17:08:50.953Z,26.80
2023-02-16T17:11:28.687Z,34.58
2023-02-16T17:13:57.242Z,27.73
2023-02-16T17:16:28.629Z,29.00
2023-02-16T17:21:21.553Z,30.38
2023-02-16T17:23:53.244Z,33.80
2023-02-16T17:26:20.288Z,33.40
2023-02-16T17:28:46.773Z,26.52
2023-02-16T17:31:13.186Z,26.35
2023-02-16T17:33:39.668Z,27.23
2023-02-16T17:36:08.118Z,30.27
2023-02-16T17:38:34.707Z,28.13
2023-02-16T17:41:01.153Z,29.58
2023-02-16T17:43:28.100Z,31.80
2023-02-16T17:45:56.785Z,34.00
2023-02-16T17:48:33.103Z,30.17
2023-02-16T17:50:59.642Z,29.30
2023-02-16T17:53:27.300Z,30.17
2023-02-16T17:55:56.158Z,30.48
2023-02-16T17:58:24.214Z,30.38
2023-02-16T18:00:51.243Z,29.90
2023-02-16T18:03:18.809Z,35.97
2023-02-16T18:05:45.371Z,38.78
2023-02-16T18:08:12.841Z,40.92
2023-02-16T18:10:44.374Z,38.72
2023-02-16T18:13:12.243Z,33.63
2023-02-16T18:15:45.640Z,37.85
2023-02-16T18:18:13.446Z,46.75
2023-02-16T18:20:40.727Z,55.10
2023-02-16T18:23:07.441Z,61.47
2023-02-16T18:25:34.465Z,65.93
2023-02-16T18:28:00.937Z,68.90
2023-02-16T18:30:27.477Z,57.15
2023-02-16T18:32:53.970Z,52.78
2023-02-16T18:35:20.687Z,49.95
2023-02-16T18:37:47.682Z,45.33
2023-02-16T18:40:19.538Z,49.28
2023-02-16T18:42:47.026Z,46.90
2023-02-16T18:45:13.569Z,42.42
2023-02-16T18:47:39.950Z,43.38
2023-02-16T18:50:06.893Z,44.83
2023-02-16T18:52:33.329Z,44.53
2023-02-16T18:54:59.933Z,42.78
2023-02-16T18:57:26.431Z,39.20
2023-02-16T18:59:52.869Z,43.45
2023-02-16T19:02:19.468Z,40.03
2023-02-16T19:04:45.983Z,41.88
2023-02-16T19:07:12.459Z,41.70
2023-02-16T19:09:38.866Z,40.97
2023-02-16T19:12:05.439Z,39.25
2023-02-16T19:14:31.964Z,41.70
2023-02-16T19:16:58.365Z,36.28
2023-02-16T19:19:24.860Z,44.45
2023-02-16T19:21:51.316Z,41.08
2023-02-16T19:24:17.744Z,42.08
2023-02-16T19:26:44.389Z,42.15
2023-02-16T19:29:12.761Z,44.30
2023-02-16T19:31:39.782Z,43.55
2023-02-16T19:34:06.519Z,39.35
2023-02-16T19:36:34.105Z,39.92
2023-02-16T19:39:01.866Z,34.80
2023-02-16T19:41:31.763Z,35.38
2023-02-16T19:43:58.488Z,39.13
2023-02-16T19:46:26.184Z,37.65
2023-02-16T19:48:55.527Z,40.28
2023-02-16T19:51:22.166Z,36.10
2023-02-16T19:53:50.426Z,35.55
2023-02-16T19:56:20.353Z,40.45
2023-02-16T19:58:47.762Z,37.92
2023-02-16T20:01:19.866Z,38.72
2023-02-16T20:03:47.364Z,41.80
2023-02-16T20:06:17.756Z,39.42
2023-02-16T20:08:45.165Z,39.65
2023-02-16T20:11:11.950Z,40.85
2023-02-16T20:13:38.738Z,43.70
2023-02-16T20:16:08.106Z,41.28
2023-02-16T20:18:35.332Z,37.78
2023-02-16T20:21:22.966Z,38.55
2023-02-16T20:23:51.716Z,40.42
2023-02-16T20:26:33.601Z,40.53
2023-02-16T20:29:00.644Z,39.05
2023-02-16T20:31:43.073Z,40.28
2023-02-16T20:34:09.664Z,38.42
2023-02-16T20:36:37.154Z,39.78
2023-02-16T20:39:06.069Z,37.83
2023-02-16T20:41:32.558Z,40.45
2023-02-16T20:43:58.989Z,37.40
2023-02-16T20:46:26.050Z,37.40
2023-02-16T20:48:52.606Z,40.03
2023-02-16T20:51:19.863Z,37.67
2023-02-16T20:53:46.511Z,38.15
2023-02-16T20:56:22.778Z,38.72
2023-02-16T20:58:52.107Z,38.90
2023-02-16T21:01:22.972Z,38.58
2023-02-16T21:03:51.037Z,38.22
2023-02-16T21:06:18.207Z,33.13
2023-02-16T21:08:44.889Z,35.00
2023-02-16T21:11:11.536Z,31.15
2023-02-16T21:13:38.934Z,31.05
2023-02-16T21:16:07.161Z,31.48
2023-02-16T21:18:35.030Z,32.72
2023-02-16T21:21:01.693Z,34.88
2023-02-16T21:23:28.505Z,33.85
2023-02-16T21:25:59.798Z,31.13
2023-02-16T21:28:27.463Z,30.95
2023-02-16T21:30:54.208Z,31.92
2023-02-16T21:33:20.895Z,28.80
2023-02-16T21:35:47.537Z,28.52
2023-02-16T21:38:14.128Z,29.00
2023-02-16T21:40:59.302Z,27.17
2023-02-16T21:43:25.737Z,31.48
2023-02-16T21:46:00.180Z,29.52
2023-02-16T21:48:45.160Z,31.90
2023-02-16T21:51:13.859Z,27.38
2023-02-16T21:53:40.343Z,30.55
2023-02-16T21:56:17.118Z,28.52
2023-02-16T21:58:44.154Z,27.83
2023-02-16T22:01:10.709Z,32.42
2023-02-16T22:03:37.202Z,31.00
2023-02-16T22:06:05.283Z,28.83
2023-02-16T22:08:34.282Z,25.52
2023-02-16T22:11:08.544Z,27.10
2023-02-16T22:13:36.786Z,27.65
2023-02-16T22:16:12.025Z,30.35
2023-02-16T22:18:39.528Z,26.70
2023-02-16T22:21:07.123Z,28.73
2023-02-16T22:23:33.524Z,24.00
2023-02-16T22:26:00.194Z,27.30
2023-02-16T22:28:26.636Z,24.15
2023-02-16T22:30:53.084Z,25.67
2023-02-16T22:33:19.490Z,27.67
2023-02-16T22:35:45.870Z,26.73
2023-02-16T22:38:12.290Z,28.20
2023-02-16T22:40:38.704Z,26.00
2023-02-16T22:43:05.154Z,25.27
2023-02-16T22:45:31.650Z,26.30
2023-02-16T22:47:58.034Z,25.60
2023-02-16T22:50:24.487Z,23.30
2023-02-16T22:52:52.979Z,22.08
2023-02-16T22:55:19.369Z,23.80
2023-02-16T22:57:45.871Z,24.48
2023-02-16T23:00:16.528Z,23.25
2023-02-16T23:02:43.183Z,21.70
2023-02-16T23:05:09.591Z,22.45
2023-02-16T23:07:36.090Z,22.08
2023-02-16T23:10:02.563Z,22.58
2023-02-16T23:12:29.007Z,24.30
2023-02-16T23:14:55.544Z,20.73
2023-02-16T23:17:21.988Z,20.90
2023-02-16T23:19:50.606Z,21.52
2023-02-16T23:22:17.012Z,22.63
2023-02-16T23:24:43.512Z,22.63
2023-02-16T23:27:09.924Z,21.30
2023-02-16T23:29:36.350Z,23.10
2023-02-16T23:32:05.596Z,23.88
2023-02-16T23:34:32.093Z,23.98
2023-02-16T23:36:58.510Z,21.40
2023-02-16T23:39:24.961Z,24.40
2023-02-16T23:41:51.386Z,24.20
2023-02-16T23:44:17.776Z,24.73
2023-02-16T23:46:44.232Z,22.73
2023-02-16T23:49:10.790Z,24.92
2023-02-16T23:51:37.224Z,25.40
2023-02-16T23:54:03.782Z,24.45
2023-02-16T23:56:30.311Z,25.15
2023-02-16T23:58:58.800Z,26.35
